createdAt,value
2019-02-23T00:00:21.734Z,102481.98
2019-02-23T00:02:50.275Z,102482.84
2019-02-23T00:05:18.701Z,102479.80
2019-02-23T00:07:47.157Z,102486.11
2019-02-23T00:10:15.835Z,102487.50
2019-02-23T00:12:44.253Z,102481.52
2019-02-23T00:15:12.709Z,102476.23
2019-02-23T00:17:41.144Z,102484.86
2019-02-23T00:20:09.635Z,102487.28
2019-02-23T00:22:38.058Z,102487.25
2019-02-23T00:25:06.776Z,102486.78
2019-02-23T00:27:35.199Z,102483.69
2019-02-23T00:30:04.260Z,102478.49
2019-02-23T00:32:33.036Z,102484.12
2019-02-23T00:35:01.835Z,102475.09
2019-02-23T00:37:30.247Z,102483.81
2019-02-23T00:39:58.794Z,102487.69
2019-02-23T00:42:27.578Z,102502.81
2019-02-23T00:44:56.000Z,102498.59
2019-02-23T00:47:24.592Z,102497.66
2019-02-23T00:49:53.012Z,102507.47
2019-02-23T00:52:21.459Z,102520.42
2019-02-23T00:54:50.190Z,102513.67
2019-02-23T00:57:18.873Z,102519.11
2019-02-23T00:59:47.295Z,102510.84
2019-02-23T01:02:15.895Z,102507.51
2019-02-23T01:04:44.338Z,102517.13
2019-02-23T01:07:12.896Z,102514.95
2019-02-23T01:09:41.425Z,102511.70
2019-02-23T01:12:09.899Z,102512.61
2019-02-23T01:14:38.322Z,102525.18
2019-02-23T01:17:07.211Z,102525.71
2019-02-23T01:19:47.053Z,102526.26
2019-02-23T01:22:05.871Z,102520.56
2019-02-23T01:24:34.323Z,102520.56
2019-02-23T01:27:02.814Z,102524.48
2019-02-23T01:29:31.308Z,102512.83
2019-02-23T01:31:59.859Z,102517.05
2019-02-23T01:34:28.459Z,102525.30
2019-02-23T01:36:56.951Z,102522.66
2019-02-23T01:39:25.774Z,102525.73
2019-02-23T01:41:54.207Z,102525.68
2019-02-23T01:44:22.707Z,102527.09
2019-02-23T01:46:51.167Z,102519.09
2019-02-23T01:49:19.590Z,102521.64
2019-02-23T01:51:48.015Z,102521.05
2019-02-23T01:54:16.556Z,102526.20
2019-02-23T01:56:44.983Z,102516.20
2019-02-23T01:59:13.503Z,102513.80
2019-02-23T02:01:42.522Z,102512.21
2019-02-23T02:04:10.944Z,102514.19
2019-02-23T02:06:41.753Z,102517.59
2019-02-23T02:09:10.080Z,102520.58
2019-02-23T02:11:38.726Z,102514.94
2019-02-23T02:14:07.630Z,102524.95
2019-02-23T02:16:36.154Z,102530.73
2019-02-23T02:19:04.585Z,102523.60
2019-02-23T02:21:33.279Z,102522.29
2019-02-23T02:24:01.743Z,102515.09
2019-02-23T02:26:30.299Z,102520.31
2019-02-23T02:28:58.675Z,102512.23
2019-02-23T02:31:27.255Z,102516.55
2019-02-23T02:34:09.362Z,102517.87
2019-02-23T02:36:37.943Z,102516.16
2019-02-23T02:39:08.682Z,102515.19
2019-02-23T02:41:37.202Z,102520.45
2019-02-23T02:44:05.742Z,102511.34
2019-02-23T02:46:34.188Z,102510.41
2019-02-23T02:49:02.781Z,102511.57
2019-02-23T02:51:31.397Z,102514.16
2019-02-23T02:53:59.836Z,102520.02
2019-02-23T02:56:28.256Z,102513.21
2019-02-23T02:58:56.712Z,102502.37
2019-02-23T03:01:25.144Z,102496.78
2019-02-23T03:03:53.656Z,102493.20
2019-02-23T03:06:22.435Z,102495.36
2019-02-23T03:08:51.227Z,102493.71
2019-02-23T03:11:19.652Z,102494.46
2019-02-23T03:13:48.116Z,102497.34
2019-02-23T03:16:35.860Z,102491.09
2019-02-23T03:19:23.660Z,102491.42
2019-02-23T03:21:52.086Z,102493.53
2019-02-23T03:24:21.408Z,102499.64
2019-02-23T03:29:23.495Z,102499.78
2019-02-23T03:34:26.682Z,102492.64
2019-02-23T03:36:55.161Z,102489.77
2019-02-23T03:39:23.566Z,102488.78
2019-02-23T03:42:11.472Z,102490.15
2019-02-23T03:44:39.908Z,102487.09
2019-02-23T03:47:27.560Z,102482.11
2019-02-23T03:49:55.994Z,102486.67
2019-02-23T03:52:24.458Z,102480.94
2019-02-23T03:54:52.889Z,102485.83
2019-02-23T03:57:40.564Z,102492.88
2019-02-23T04:00:49.320Z,102486.44
2019-02-23T04:03:17.758Z,102482.87
2019-02-23T04:05:46.267Z,102473.19
2019-02-23T04:08:14.726Z,102470.94
2019-02-23T04:11:02.451Z,102470.52
2019-02-23T04:13:50.219Z,102471.59
2019-02-23T04:16:37.972Z,102465.27
2019-02-23T04:21:40.083Z,102469.16
2019-02-23T04:24:08.507Z,102477.31
2019-02-23T04:26:37.083Z,102479.10
2019-02-23T04:29:05.483Z,102481.88
2019-02-23T04:31:33.906Z,102494.19
2019-02-23T04:34:02.370Z,102489.40
2019-02-23T04:36:30.877Z,102491.31
2019-02-23T04:38:59.309Z,102487.84
2019-02-23T04:41:27.761Z,102483.48
2019-02-23T04:43:56.279Z,102500.77
2019-02-23T04:46:24.707Z,102499.20
2019-02-23T04:51:27.253Z,102485.34
2019-02-23T04:53:55.679Z,102476.81
2019-02-23T04:56:24.227Z,102482.02
2019-02-23T04:58:53.002Z,102491.16
2019-02-23T05:01:21.432Z,102492.70
2019-02-23T05:06:24.097Z,102491.59
2019-02-23T05:11:26.507Z,102499.38
2019-02-23T05:13:54.948Z,102490.41
2019-02-23T05:16:42.533Z,102491.88
2019-02-23T05:19:10.956Z,102499.08
2019-02-23T05:21:39.386Z,102493.25
2019-02-23T05:24:07.840Z,102495.70
2019-02-23T05:26:36.274Z,102488.67
2019-02-23T05:29:04.700Z,102486.52
2019-02-23T05:31:33.162Z,102500.66
2019-02-23T05:34:01.685Z,102497.13
2019-02-23T05:36:30.109Z,102501.07
2019-02-23T05:38:58.555Z,102491.88
2019-02-23T05:41:26.987Z,102489.73
2019-02-23T05:43:55.412Z,102489.14
2019-02-23T05:46:23.877Z,102493.39
2019-02-23T05:48:52.303Z,102490.76
2019-02-23T05:51:20.732Z,102489.92
2019-02-23T05:53:49.188Z,102500.58
2019-02-23T05:56:17.617Z,102506.25
2019-02-23T05:58:46.045Z,102506.86
2019-02-23T06:01:33.765Z,102514.73
2019-02-23T06:04:02.461Z,102506.12
2019-02-23T06:06:30.893Z,102509.94
2019-02-23T06:08:59.359Z,102510.71
2019-02-23T06:11:27.788Z,102513.02
2019-02-23T06:13:56.313Z,102514.80
2019-02-23T06:17:04.688Z,102514.80
2019-02-23T06:19:33.116Z,102506.24
2019-02-23T06:22:01.558Z,102503.98
2019-02-23T06:24:30.013Z,102505.67
2019-02-23T06:26:58.434Z,102503.08
2019-02-23T06:29:26.906Z,102502.66
2019-02-23T06:31:55.684Z,102509.28
2019-02-23T06:37:11.584Z,102507.14
2019-02-23T06:39:40.024Z,102517.36
2019-02-23T06:42:08.456Z,102517.58
2019-02-23T06:44:37.240Z,102516.17
2019-02-23T06:49:54.772Z,102515.13
2019-02-23T06:52:23.206Z,102529.20
2019-02-23T06:54:51.633Z,102534.87
2019-02-23T06:57:20.089Z,102546.80
2019-02-23T06:59:48.517Z,102545.06
2019-02-23T07:02:16.944Z,102542.91
2019-02-23T07:07:19.392Z,102544.05
2019-02-23T07:09:47.820Z,102554.49
2019-02-23T07:12:16.544Z,102557.59
2019-02-23T07:14:45.332Z,102561.44
2019-02-23T07:17:13.767Z,102562.45
2019-02-23T07:19:42.500Z,102567.41
2019-02-23T07:22:30.261Z,102573.76
2019-02-23T07:24:58.717Z,102576.98
2019-02-23T07:27:27.504Z,102582.09
2019-02-23T07:29:56.293Z,102580.88
2019-02-23T07:32:24.749Z,102578.79
2019-02-23T07:34:53.177Z,102582.54
2019-02-23T07:37:21.604Z,102588.74
2019-02-23T07:39:50.060Z,102596.05
2019-02-23T07:42:18.580Z,102591.50
2019-02-23T07:44:47.012Z,102591.81
2019-02-23T07:47:15.762Z,102593.50
2019-02-23T07:49:44.197Z,102589.83
2019-02-23T07:52:12.623Z,102591.14
2019-02-23T07:54:41.185Z,102592.09
2019-02-23T07:57:09.612Z,102593.09
2019-02-23T07:59:38.045Z,102601.65
2019-02-23T08:02:06.508Z,102606.28
2019-02-23T08:04:34.939Z,102597.33
2019-02-23T08:07:03.365Z,102598.67
2019-02-23T08:09:31.821Z,102595.34
2019-02-23T08:12:00.249Z,102596.08
2019-02-23T08:14:28.993Z,102596.91
2019-02-23T08:16:57.429Z,102590.05
2019-02-23T08:19:25.862Z,102601.59
2019-02-23T08:21:54.356Z,102601.30
2019-02-23T08:27:08.817Z,102593.10
2019-02-23T08:29:27.118Z,102588.94
2019-02-23T08:31:55.549Z,102586.09
2019-02-23T08:34:23.978Z,102591.98
2019-02-23T08:39:46.000Z,102573.58
2019-02-23T08:42:14.469Z,102579.61
2019-02-23T08:44:42.897Z,102583.64
2019-02-23T08:47:11.326Z,102576.59
2019-02-23T08:49:39.791Z,102581.69
2019-02-23T08:52:50.185Z,102568.56
2019-02-23T08:57:52.557Z,102565.81
2019-02-23T09:00:21.384Z,102567.26
2019-02-23T09:02:49.824Z,102566.66
2019-02-23T09:05:18.254Z,102568.72
2019-02-23T09:07:47.124Z,102570.36
2019-02-23T09:10:17.257Z,102564.81
2019-02-23T09:12:45.709Z,102562.20
2019-02-23T09:18:07.280Z,102566.73
2019-02-23T09:20:35.760Z,102577.27
2019-02-23T09:23:04.195Z,102566.59
2019-02-23T09:25:32.714Z,102573.55
2019-02-23T09:28:01.175Z,102573.08
2019-02-23T09:30:29.699Z,102568.05
2019-02-23T09:32:58.218Z,102570.64
2019-02-23T09:38:25.744Z,102582.59
2019-02-23T09:41:13.493Z,102589.01
2019-02-23T09:43:41.952Z,102603.42
2019-02-23T09:46:10.498Z,102607.08
2019-02-23T09:48:38.921Z,102599.00
2019-02-23T09:51:26.624Z,102602.23
2019-02-23T09:53:55.062Z,102608.45
2019-02-23T09:56:23.820Z,102599.30
2019-02-23T09:59:11.478Z,102591.22
2019-02-23T10:01:39.996Z,102600.66
2019-02-23T10:04:08.720Z,102583.52
2019-02-23T10:09:11.520Z,102574.95
2019-02-23T10:11:40.037Z,102579.30
2019-02-23T10:14:08.585Z,102587.70
2019-02-23T10:16:37.101Z,102593.08
2019-02-23T10:19:05.532Z,102574.62
2019-02-23T10:21:34.336Z,102570.00
2019-02-23T10:24:02.764Z,102568.16
2019-02-23T10:26:31.197Z,102560.53
2019-02-23T10:28:59.652Z,102558.75
2019-02-23T10:31:28.084Z,102553.13
2019-02-23T10:33:56.844Z,102557.45
2019-02-23T10:36:25.305Z,102555.68
2019-02-23T10:38:53.736Z,102555.45
2019-02-23T10:41:22.274Z,102546.42
2019-02-23T10:43:50.711Z,102547.44
2019-02-23T10:46:19.141Z,102546.33
2019-02-23T10:48:47.570Z,102536.88
2019-02-23T10:51:35.262Z,102531.20
2019-02-23T10:54:03.850Z,102523.97
2019-02-23T10:56:32.631Z,102531.16
2019-02-23T10:59:01.093Z,102528.92
2019-02-23T11:01:29.527Z,102534.77
2019-02-23T11:03:58.873Z,102530.12
2019-02-23T11:09:01.339Z,102543.25
2019-02-23T11:11:29.769Z,102545.84
2019-02-23T11:16:31.912Z,102547.88
2019-02-23T11:19:00.341Z,102558.67
2019-02-23T11:21:28.770Z,102546.19
2019-02-23T11:29:45.311Z,102573.84
2019-02-23T11:32:14.041Z,102583.66
2019-02-23T11:34:42.565Z,102580.62
2019-02-23T11:37:11.822Z,102579.91
2019-02-23T11:39:40.253Z,102583.27
2019-02-23T11:42:09.009Z,102569.05
2019-02-23T11:44:37.557Z,102565.08
2019-02-23T11:47:05.985Z,102569.01
2019-02-23T11:49:34.442Z,102578.09
2019-02-23T11:54:36.704Z,102562.41
2019-02-23T11:57:24.409Z,102550.51
2019-02-23T12:02:59.587Z,102566.63
2019-02-23T12:05:28.011Z,102548.56
2019-02-23T12:07:56.778Z,102554.81
2019-02-23T12:10:25.252Z,102562.49
2019-02-23T12:13:12.873Z,102548.09
2019-02-23T12:15:41.338Z,102539.06
2019-02-23T12:18:09.765Z,102541.37
2019-02-23T12:20:38.197Z,102541.27
2019-02-23T12:23:06.719Z,102540.55
2019-02-23T12:25:35.222Z,102534.25
2019-02-23T12:28:03.655Z,102523.62
2019-02-23T12:30:32.841Z,102514.41
2019-02-23T12:33:02.253Z,102496.97
2019-02-23T12:36:10.696Z,102501.14
2019-02-23T12:38:58.368Z,102498.67
2019-02-23T12:41:26.837Z,102488.33
2019-02-23T12:43:55.272Z,102491.27
2019-02-23T12:46:23.703Z,102486.73
2019-02-23T12:48:52.167Z,102486.42
2019-02-23T12:51:20.588Z,102482.34
2019-02-23T12:53:49.010Z,102472.44
2019-02-23T12:56:36.665Z,102464.94
2019-02-23T12:59:05.105Z,102461.81
2019-02-23T13:01:33.535Z,102460.31
2019-02-23T13:04:02.405Z,102459.82
2019-02-23T13:06:30.827Z,102454.80
2019-02-23T13:09:37.955Z,102460.73
2019-02-23T13:12:46.293Z,102455.42
2019-02-23T13:15:53.369Z,102451.16
2019-02-23T13:19:01.723Z,102452.25
2019-02-23T13:22:08.770Z,102446.05
2019-02-23T13:25:17.109Z,102442.55
2019-02-23T13:28:25.672Z,102433.98
2019-02-23T13:31:34.011Z,102435.91
2019-02-23T13:34:48.078Z,102424.73
2019-02-23T13:37:56.672Z,102412.24
2019-02-23T13:41:03.715Z,102406.42
2019-02-23T13:44:12.069Z,102412.36
2019-02-23T13:47:20.769Z,102409.10
2019-02-23T13:50:27.786Z,102401.88
2019-02-23T13:53:34.833Z,102403.12
2019-02-23T13:56:39.547Z,102397.31
2019-02-23T13:59:28.140Z,102384.50
2019-02-23T14:02:18.018Z,102384.72
2019-02-23T14:04:58.451Z,102388.03
2019-02-23T14:07:35.692Z,102389.67
2019-02-23T14:10:19.153Z,102392.19
2019-02-23T14:13:06.827Z,102384.19
2019-02-23T14:15:41.455Z,102388.76
2019-02-23T14:18:13.036Z,102384.77
2019-02-23T14:20:53.395Z,102386.50
2019-02-23T14:23:40.207Z,102382.36
2019-02-23T14:26:43.920Z,102392.60
2019-02-23T14:29:15.742Z,102390.45
2019-02-23T14:32:14.085Z,102386.58
2019-02-23T14:34:54.806Z,102387.78
2019-02-23T14:37:51.772Z,102386.15
2019-02-23T14:40:35.116Z,102377.44
2019-02-23T14:43:27.827Z,102378.61
2019-02-23T14:45:59.622Z,102380.50
2019-02-23T14:48:59.618Z,102386.61
2019-02-23T14:51:37.204Z,102383.34
2019-02-23T14:54:14.346Z,102387.33
2019-02-23T14:56:51.613Z,102385.70
2019-02-23T14:59:25.938Z,102387.58
2019-02-23T15:02:09.409Z,102386.54
2019-02-23T15:04:55.810Z,102389.20
2019-02-23T15:07:36.318Z,102392.34
2019-02-23T15:10:25.803Z,102389.20
2019-02-23T15:13:03.081Z,102384.69
2019-02-23T15:15:53.647Z,102381.29
2019-02-23T15:18:30.674Z,102370.13
2019-02-23T15:21:23.031Z,102375.07
2019-02-23T15:24:18.846Z,102363.80
2019-02-23T15:27:17.711Z,102357.66
2019-02-23T15:30:01.525Z,102358.16
2019-02-23T15:32:49.849Z,102364.22
2019-02-23T15:35:36.579Z,102367.27
2019-02-23T15:38:13.963Z,102354.02
2019-02-23T15:40:45.825Z,102366.39
2019-02-23T15:43:46.114Z,102362.73
2019-02-23T15:46:24.577Z,102363.69
2019-02-23T15:49:02.679Z,102369.88
2019-02-23T15:51:31.536Z,102367.62
2019-02-23T15:54:00.299Z,102364.89
2019-02-23T15:56:28.986Z,102364.34
2019-02-23T15:58:57.410Z,102366.56
2019-02-23T16:01:26.211Z,102355.48
2019-02-23T16:03:54.741Z,102359.75
2019-02-23T16:06:23.172Z,102357.83
2019-02-23T16:08:51.775Z,102363.52
2019-02-23T16:11:20.959Z,102365.22
2019-02-23T16:13:49.477Z,102367.73
2019-02-23T16:16:18.277Z,102369.31
2019-02-23T16:18:47.038Z,102366.92
2019-02-23T16:21:15.447Z,102364.25
2019-02-23T16:23:44.253Z,102355.73
2019-02-23T16:26:12.748Z,102350.33
2019-02-23T16:28:41.248Z,102341.48
2019-02-23T16:31:09.678Z,102339.59
2019-02-23T16:33:38.246Z,102343.34
2019-02-23T16:36:06.678Z,102349.69
2019-02-23T16:38:35.307Z,102363.67
2019-02-23T16:41:05.505Z,102374.57
2019-02-23T16:43:34.287Z,102366.61
2019-02-23T16:46:02.713Z,102365.47
2019-02-23T16:48:31.513Z,102368.31
2019-02-23T16:50:59.955Z,102368.13
2019-02-23T16:53:28.400Z,102377.81
2019-02-23T16:55:57.306Z,102381.56
2019-02-23T16:58:25.899Z,102381.11
2019-02-23T17:00:54.325Z,102385.80
2019-02-23T17:03:22.846Z,102385.25
2019-02-23T17:05:51.268Z,102389.39
2019-02-23T17:08:20.838Z,102387.46
2019-02-23T17:10:49.299Z,102392.46
2019-02-23T17:13:17.818Z,102396.55
2019-02-23T17:15:46.606Z,102395.63
2019-02-23T17:18:15.062Z,102401.16
2019-02-23T17:20:43.517Z,102403.63
2019-02-23T17:23:11.951Z,102403.50
2019-02-23T17:25:46.385Z,102406.14
2019-02-23T17:28:16.077Z,102411.12
2019-02-23T17:30:44.504Z,102404.27
2019-02-23T17:33:13.456Z,102407.52
2019-02-23T17:35:41.821Z,102420.70
2019-02-23T17:38:16.097Z,102414.66
2019-02-23T17:40:40.926Z,102417.60
2019-02-23T17:43:09.416Z,102418.52
2019-02-23T17:45:38.202Z,102417.70
2019-02-23T17:48:06.834Z,102413.57
2019-02-23T17:50:35.571Z,102408.05
2019-02-23T17:53:04.271Z,102419.33
2019-02-23T17:55:32.925Z,102415.05
2019-02-23T17:58:01.628Z,102412.59
2019-02-23T18:00:30.046Z,102413.52
2019-02-23T18:02:58.502Z,102406.74
2019-02-23T18:05:28.441Z,102402.42
2019-02-23T18:07:57.330Z,102407.69
2019-02-23T18:10:25.897Z,102412.54
2019-02-23T18:12:54.325Z,102409.48
2019-02-23T18:15:22.750Z,102414.38
2019-02-23T18:17:51.196Z,102416.86
2019-02-23T18:20:19.618Z,102414.57
2019-02-23T18:22:48.149Z,102422.41
2019-02-23T18:25:16.602Z,102416.94
2019-02-23T18:27:45.132Z,102421.74
2019-02-23T18:30:14.241Z,102425.42
2019-02-23T18:32:42.803Z,102430.73
2019-02-23T18:35:11.324Z,102425.19
2019-02-23T18:37:41.992Z,102433.22
2019-02-23T18:40:12.436Z,102435.42
2019-02-23T18:42:41.197Z,102434.81
2019-02-23T18:45:09.680Z,102433.84
2019-02-23T18:47:38.140Z,102439.07
2019-02-23T18:50:08.194Z,102440.47
2019-02-23T18:52:36.943Z,102434.27
2019-02-23T18:55:08.325Z,102441.78
2019-02-23T18:57:36.854Z,102439.07
2019-02-23T19:00:08.838Z,102441.86
2019-02-23T19:02:37.365Z,102444.02
2019-02-23T19:05:13.674Z,102444.33
2019-02-23T19:07:42.143Z,102441.07
2019-02-23T19:10:12.841Z,102444.17
2019-02-23T19:12:41.568Z,102440.44
2019-02-23T19:15:12.486Z,102440.58
2019-02-23T19:17:40.945Z,102437.14
2019-02-23T19:20:11.810Z,102435.14
2019-02-23T19:22:40.238Z,102431.96
2019-02-23T19:25:10.625Z,102432.55
2019-02-23T19:27:39.041Z,102433.70
2019-02-23T19:30:10.563Z,102434.38
2019-02-23T19:32:39.287Z,102433.27
2019-02-23T19:35:08.366Z,102431.02
2019-02-23T19:37:37.152Z,102433.27
2019-02-23T19:40:08.633Z,102436.10
2019-02-23T19:42:37.377Z,102434.28
2019-02-23T19:45:08.939Z,102427.43
2019-02-23T19:47:38.222Z,102428.12
2019-02-23T19:50:22.023Z,102430.97
2019-02-23T19:52:50.574Z,102434.74
2019-02-23T19:55:19.340Z,102430.41
2019-02-23T19:57:48.109Z,102438.90
2019-02-23T20:00:16.699Z,102438.94
2019-02-23T20:03:04.308Z,102438.39
2019-02-23T20:08:07.221Z,102432.16
2019-02-23T20:10:35.664Z,102430.83
2019-02-23T20:13:04.094Z,102427.73
2019-02-23T20:15:32.587Z,102418.63
2019-02-23T20:18:01.363Z,102416.61
2019-02-23T20:20:29.788Z,102419.78
2019-02-23T20:22:58.314Z,102413.16
2019-02-23T20:28:00.727Z,102418.89
2019-02-23T20:30:29.286Z,102421.38
2019-02-23T20:32:57.976Z,102411.92
2019-02-23T20:35:26.671Z,102415.78
2019-02-23T20:37:55.453Z,102411.91
2019-02-23T20:40:24.036Z,102408.01
2019-02-23T20:43:11.781Z,102410.05
2019-02-23T20:45:40.203Z,102406.44
2019-02-23T20:48:08.935Z,102410.22
2019-02-23T20:53:11.675Z,102404.75
2019-02-23T20:55:40.420Z,102405.47
2019-02-23T20:58:08.842Z,102417.70
2019-02-23T21:00:37.282Z,102417.02
2019-02-23T21:03:05.734Z,102427.50
2019-02-23T21:05:34.166Z,102423.38
2019-02-23T21:08:02.683Z,102420.03
2019-02-23T21:10:50.776Z,102425.38
2019-02-23T21:13:19.199Z,102420.98
2019-02-23T21:15:47.929Z,102427.58
2019-02-23T21:18:16.403Z,102436.18
2019-02-23T21:20:44.826Z,102430.22
2019-02-23T21:23:13.259Z,102426.84
2019-02-23T21:25:41.709Z,102424.39
2019-02-23T21:28:10.143Z,102429.06
2019-02-23T21:30:38.593Z,102428.02
2019-02-23T21:35:40.736Z,102423.44
2019-02-23T21:38:09.166Z,102423.77
2019-02-23T21:40:37.626Z,102429.12
2019-02-23T21:43:06.046Z,102424.13
2019-02-23T21:46:14.416Z,102427.55
2019-02-23T21:48:43.143Z,102421.44
2019-02-23T21:51:11.933Z,102423.33
2019-02-23T21:53:40.388Z,102427.64
2019-02-23T21:56:29.048Z,102429.27
2019-02-23T21:58:57.859Z,102422.98
2019-02-23T22:01:26.299Z,102426.25
2019-02-23T22:03:54.721Z,102422.98
2019-02-23T22:06:23.187Z,102424.88
2019-02-23T22:08:51.621Z,102424.13
2019-02-23T22:11:20.373Z,102427.25
2019-02-23T22:13:48.837Z,102432.05
2019-02-23T22:16:17.264Z,102433.60
2019-02-23T22:19:05.066Z,102431.16
2019-02-23T22:21:33.472Z,102430.45
2019-02-23T22:24:02.052Z,102428.77
2019-02-23T22:26:43.979Z,102429.05
2019-02-23T22:29:02.332Z,102434.30
2019-02-23T22:31:31.077Z,102435.23
2019-02-23T22:33:59.545Z,102436.42
2019-02-23T22:36:27.979Z,102432.84
2019-02-23T22:38:56.399Z,102436.79
2019-02-23T22:41:24.862Z,102432.00
2019-02-23T22:43:53.377Z,102438.65
2019-02-23T22:46:22.763Z,102436.18
2019-02-23T22:51:25.648Z,102435.62
2019-02-23T22:53:54.109Z,102441.72
2019-02-23T22:56:22.629Z,102446.80
2019-02-23T22:58:51.056Z,102440.41
2019-02-23T23:04:13.265Z,102441.33
2019-02-23T23:06:42.052Z,102459.63
2019-02-23T23:09:29.879Z,102457.83
2019-02-23T23:11:58.337Z,102450.71
2019-02-23T23:14:27.164Z,102440.09
2019-02-23T23:16:56.551Z,102444.60
2019-02-23T23:19:44.188Z,102445.52
2019-02-23T23:22:12.623Z,102442.13
2019-02-23T23:24:41.054Z,102451.84
2019-02-23T23:29:44.084Z,102446.98
2019-02-23T23:32:31.888Z,102451.19
2019-02-23T23:35:00.339Z,102445.20
2019-02-23T23:37:28.748Z,102448.16
2019-02-23T23:39:57.215Z,102437.03
2019-02-23T23:42:25.645Z,102438.90
2019-02-23T23:44:54.077Z,102446.27
2019-02-23T23:49:56.784Z,102444.30
2019-02-23T23:52:25.217Z,102437.03
2019-02-23T23:54:53.676Z,102430.91
2019-02-23T23:57:22.105Z,102428.80
2019-02-23T23:59:50.629Z,102433.14
